Time;durP1;ratioP1;P1;durP2;ratioP2;P2;SDS_P1;SDS_P2;PMS_P1;PMS_P2;Temp;Humidity;BMP_temperature;BMP_pressure;BME280_temperature;BME280_humidity;BME280_pressure;Samples;Min_cycle;Max_cycle;Signal;HPM_P1;HPM_P2
2022/01/10 00:01:46;;;;;;;44.22;33.53;;;;;;;;;;143730;766;46012;-80
2022/01/10 00:04:13;;;;;;;39.20;29.98;;;;;;;;;;143730;584;46020;-81
2022/01/10 00:06:40;;;;;;;47.22;33.60;;;;;;;;;;143734;668;46021;-80
2022/01/10 00:09:10;;;;;;;39.42;27.67;;;;;;;;;;143732;576;46012;-82
2022/01/10 00:11:40;;;;;;;38.70;25.20;;;;;;;;;;143731;559;47022;-80
2022/01/10 00:14:06;;;;;;;33.55;23.60;;;;;;;;;;143732;678;46021;-79
2022/01/10 00:16:33;;;;;;;30.75;23.83;;;;;;;;;;143732;605;46012;-81
2022/01/10 00:19:01;;;;;;;31.77;24.63;;;;;;;;;;143734;579;46020;-81
2022/01/10 00:21:27;;;;;;;29.08;22.83;;;;;;;;;;143733;660;46022;-82
2022/01/10 00:23:54;;;;;;;30.42;23.77;;;;;;;;;;143733;570;46010;-80
2022/01/10 00:26:21;;;;;;;33.00;24.80;;;;;;;;;;143731;636;46018;-81
2022/01/10 00:28:47;;;;;;;35.55;25.75;;;;;;;;;;143735;603;46012;-80
2022/01/10 00:31:16;;;;;;;27.30;22.00;;;;;;;;;;143731;679;47020;-80
2022/01/10 00:33:46;;;;;;;31.23;25.52;;;;;;;;;;143730;566;46012;-81
2022/01/10 00:36:14;;;;;;;25.37;20.30;;;;;;;;;;143735;579;46021;-81
2022/01/10 00:38:40;;;;;;;23.75;17.85;;;;;;;;;;143735;720;46021;-80
2022/01/10 00:41:07;;;;;;;23.25;18.52;;;;;;;;;;143731;656;46022;-80
2022/01/10 00:43:39;;;;;;;21.90;16.52;;;;;;;;;;143733;583;46010;-81
2022/01/10 00:46:09;;;;;;;20.23;16.52;;;;;;;;;;143733;580;46021;-80
2022/01/10 00:48:35;;;;;;;22.85;18.83;;;;;;;;;;143735;582;46010;-80
2022/01/10 00:51:02;;;;;;;28.23;19.35;;;;;;;;;;143733;605;46052;-80
2022/01/10 00:53:29;;;;;;;29.12;22.30;;;;;;;;;;143733;585;46010;-80
2022/01/10 00:55:55;;;;;;;27.73;21.25;;;;;;;;;;143734;624;46020;-80
2022/01/10 00:58:22;;;;;;;30.10;21.42;;;;;;;;;;143735;561;46010;-81
2022/01/10 01:00:48;;;;;;;27.90;20.35;;;;;;;;;;143733;569;46023;-81
2022/01/10 01:03:15;;;;;;;22.48;17.80;;;;;;;;;;143731;589;46010;-80
2022/01/10 01:05:43;;;;;;;25.67;18.58;;;;;;;;;;143735;621;46013;-80
2022/01/10 01:08:14;;;;;;;20.77;16.52;;;;;;;;;;143735;586;46010;-80
2022/01/10 01:11:12;;;;;;;20.90;16.33;;;;;;;;;;143735;706;46020;-81
2022/01/10 01:13:41;;;;;;;24.02;18.50;;;;;;;;;;143733;584;46010;-80
2022/01/10 01:16:13;;;;;;;25.48;17.92;;;;;;;;;;143732;611;46021;-79
2022/01/10 01:24:14;;;;;;;22.70;17.40;;;;;;;;;;143732;723;46020;-80
2022/01/10 01:26:51;;;;;;;23.12;18.23;;;;;;;;;;143733;670;46020;-80
2022/01/10 01:29:20;;;;;;;22.80;17.45;;;;;;;;;;143736;591;46047;-80
2022/01/10 01:31:49;;;;;;;23.73;18.65;;;;;;;;;;143734;564;46023;-79
2022/01/10 01:34:17;;;;;;;23.33;18.58;;;;;;;;;;143731;613;46010;-80
2022/01/10 01:36:47;;;;;;;23.98;17.90;;;;;;;;;;143734;634;46020;-80
2022/01/10 01:39:24;;;;;;;25.10;18.33;;;;;;;;;;143734;769;46018;-81
2022/01/10 01:42:05;;;;;;;30.25;22.25;;;;;;;;;;143734;758;46022;-81
2022/01/10 01:44:35;;;;;;;28.95;22.75;;;;;;;;;;143733;564;46021;-80
2022/01/10 01:47:01;;;;;;;32.45;24.55;;;;;;;;;;143734;747;46020;-81
2022/01/10 01:49:28;;;;;;;37.88;28.45;;;;;;;;;;143736;588;46020;-79
2022/01/10 01:51:55;;;;;;;33.25;24.77;;;;;;;;;;143731;567;47022;-80
2022/01/10 01:54:21;;;;;;;31.48;22.27;;;;;;;;;;143732;626;46020;-80
2022/01/10 01:56:48;;;;;;;25.80;21.37;;;;;;;;;;143734;564;46035;-80
2022/01/10 01:59:17;;;;;;;29.90;21.05;;;;;;;;;;143734;619;46010;-80
2022/01/10 02:01:47;;;;;;;28.75;21.67;;;;;;;;;;143732;680;46050;-80
2022/01/10 02:04:19;;;;;;;32.85;20.60;;;;;;;;;;143733;577;46010;-79
2022/01/10 02:06:46;;;;;;;24.12;18.90;;;;;;;;;;143732;913;46012;-80
2022/01/10 02:09:14;;;;;;;27.52;19.37;;;;;;;;;;143735;584;46018;-80
2022/01/10 02:11:43;;;;;;;23.58;17.87;;;;;;;;;;143733;563;46022;-80
2022/01/10 02:14:10;;;;;;;25.12;19.23;;;;;;;;;;143732;586;46021;-81
2022/01/10 02:16:44;;;;;;;22.58;18.12;;;;;;;;;;143733;595;46020;-80
2022/01/10 02:19:11;;;;;;;25.90;17.85;;;;;;;;;;143735;568;46010;-79
2022/01/10 02:21:40;;;;;;;17.27;13.10;;;;;;;;;;143732;619;46021;-79
2022/01/10 02:24:08;;;;;;;19.80;14.23;;;;;;;;;;143730;613;46020;-79
2022/01/10 02:26:39;;;;;;;17.35;12.52;;;;;;;;;;143731;605;47020;-80
2022/01/10 02:29:06;;;;;;;16.23;12.60;;;;;;;;;;143734;578;46010;-79
2022/01/10 02:31:37;;;;;;;18.30;13.40;;;;;;;;;;143733;609;46023;-79
2022/01/10 02:34:03;;;;;;;20.12;14.60;;;;;;;;;;143731;573;47010;-81
2022/01/10 02:36:32;;;;;;;17.00;12.73;;;;;;;;;;143735;629;46013;-80
2022/01/10 02:39:09;;;;;;;18.33;11.73;;;;;;;;;;143734;652;46018;-81
2022/01/10 02:41:39;;;;;;;23.95;15.13;;;;;;;;;;143731;589;47022;-80
2022/01/10 02:44:09;;;;;;;16.67;13.45;;;;;;;;;;143734;569;46021;-80
2022/01/10 02:46:37;;;;;;;19.70;15.50;;;;;;;;;;143735;569;46020;-80
2022/01/10 02:49:12;;;;;;;24.50;15.60;;;;;;;;;;143735;596;46043;-80
2022/01/10 02:51:40;;;;;;;19.83;15.93;;;;;;;;;;143732;599;47021;-81
2022/01/10 02:54:07;;;;;;;27.62;15.77;;;;;;;;;;143734;564;46020;-81
2022/01/10 02:56:35;;;;;;;19.25;15.07;;;;;;;;;;143734;566;46046;-81
2022/01/10 02:59:01;;;;;;;19.33;13.80;;;;;;;;;;143734;684;46010;-80
2022/01/10 03:01:28;;;;;;;19.40;14.38;;;;;;;;;;143732;633;47022;-81
2022/01/10 03:03:56;;;;;;;20.42;15.32;;;;;;;;;;143734;613;46010;-79
2022/01/10 03:06:23;;;;;;;23.42;16.33;;;;;;;;;;143733;567;46021;-80
2022/01/10 03:08:49;;;;;;;26.40;16.92;;;;;;;;;;143737;592;46010;-79
2022/01/10 03:11:16;;;;;;;21.70;15.32;;;;;;;;;;143735;588;46022;-79
2022/01/10 03:13:42;;;;;;;16.42;13.98;;;;;;;;;;143731;571;46011;-80
2022/01/10 03:16:09;;;;;;;18.62;14.85;;;;;;;;;;143734;604;47020;-79
2022/01/10 03:18:36;;;;;;;20.17;15.65;;;;;;;;;;143735;679;46010;-78
2022/01/10 03:21:04;;;;;;;23.05;16.50;;;;;;;;;;143732;572;46021;-80
2022/01/10 03:23:31;;;;;;;22.27;16.25;;;;;;;;;;143732;643;46010;-80
2022/01/10 03:25:58;;;;;;;18.40;15.30;;;;;;;;;;143735;564;46020;-81
2022/01/10 03:28:24;;;;;;;20.27;16.73;;;;;;;;;;143736;614;46018;-79
2022/01/10 03:30:51;;;;;;;23.20;16.35;;;;;;;;;;143731;625;46020;-80
2022/01/10 03:33:18;;;;;;;29.17;22.42;;;;;;;;;;143734;615;46010;-81
2022/01/10 03:35:44;;;;;;;23.70;19.95;;;;;;;;;;143732;639;46021;-80
2022/01/10 03:38:11;;;;;;;23.52;18.48;;;;;;;;;;143735;576;46010;-79
2022/01/10 03:40:37;;;;;;;32.53;28.42;;;;;;;;;;143731;609;46012;-79
2022/01/10 03:43:04;;;;;;;32.92;24.48;;;;;;;;;;143732;597;46011;-80
2022/01/10 03:45:32;;;;;;;35.42;27.83;;;;;;;;;;143732;627;46020;-79
2022/01/10 03:48:00;;;;;;;27.45;19.37;;;;;;;;;;143735;820;46010;-78
2022/01/10 03:50:27;;;;;;;18.92;15.88;;;;;;;;;;143731;754;47022;-79
2022/01/10 03:52:54;;;;;;;19.83;16.62;;;;;;;;;;143734;672;46020;-79
2022/01/10 03:55:20;;;;;;;20.88;15.48;;;;;;;;;;143733;609;46020;-79
2022/01/10 03:57:47;;;;;;;21.37;16.05;;;;;;;;;;143734;633;46010;-79
2022/01/10 04:00:17;;;;;;;18.60;15.63;;;;;;;;;;143732;566;46049;-79
2022/01/10 04:02:51;;;;;;;19.40;14.85;;;;;;;;;;143731;593;46020;-79
2022/01/10 04:05:17;;;;;;;17.23;14.50;;;;;;;;;;143736;583;46021;-80
2022/01/10 04:07:45;;;;;;;17.48;14.20;;;;;;;;;;143734;578;46010;-80
2022/01/10 04:10:12;;;;;;;18.42;14.32;;;;;;;;;;143733;628;47020;-80
2022/01/10 04:12:41;;;;;;;18.45;14.10;;;;;;;;;;143732;578;46012;-80
2022/01/10 04:15:09;;;;;;;19.73;15.95;;;;;;;;;;143733;584;47021;-79
2022/01/10 04:17:36;;;;;;;19.87;14.40;;;;;;;;;;143735;619;46018;-79
2022/01/10 04:20:04;;;;;;;20.08;15.43;;;;;;;;;;143733;578;46022;-80
2022/01/10 04:22:31;;;;;;;22.65;17.10;;;;;;;;;;143731;615;46010;-80
2022/01/10 04:24:57;;;;;;;23.42;17.25;;;;;;;;;;143733;613;46020;-79
2022/01/10 04:27:24;;;;;;;20.52;16.15;;;;;;;;;;143734;571;46012;-80
2022/01/10 04:29:51;;;;;;;21.35;18.17;;;;;;;;;;143732;569;47023;-79
2022/01/10 04:32:17;;;;;;;24.83;18.27;;;;;;;;;;143733;622;46020;-80
2022/01/10 04:34:44;;;;;;;22.60;18.50;;;;;;;;;;143732;646;46021;-79
2022/01/10 04:37:11;;;;;;;27.08;19.80;;;;;;;;;;143735;569;46010;-81
2022/01/10 04:39:37;;;;;;;20.73;16.55;;;;;;;;;;143732;696;46022;-80
2022/01/10 04:42:04;;;;;;;18.52;15.57;;;;;;;;;;143732;630;46010;-79
2022/01/10 04:44:31;;;;;;;19.23;14.52;;;;;;;;;;143734;572;46012;-79
2022/01/10 04:46:58;;;;;;;20.33;15.32;;;;;;;;;;143734;565;46010;-80
2022/01/10 04:49:26;;;;;;;21.15;15.13;;;;;;;;;;143731;569;47022;-79
2022/01/10 04:51:54;;;;;;;22.45;17.90;;;;;;;;;;143733;644;46010;-80
2022/01/10 04:54:21;;;;;;;23.80;15.55;;;;;;;;;;143734;570;46020;-79
2022/01/10 04:56:48;;;;;;;25.15;16.83;;;;;;;;;;143735;570;46011;-79
2022/01/10 04:59:16;;;;;;;35.08;29.77;;;;;;;;;;143733;569;47023;-79
2022/01/10 05:01:42;;;;;;;35.97;27.95;;;;;;;;;;143733;645;46020;-80
2022/01/10 05:04:10;;;;;;;34.78;25.60;;;;;;;;;;143734;632;47020;-79
2022/01/10 05:06:37;;;;;;;44.08;35.88;;;;;;;;;;143735;565;46010;-79
2022/01/10 05:09:05;;;;;;;37.72;27.75;;;;;;;;;;143732;581;47022;-80
2022/01/10 05:11:35;;;;;;;34.03;26.65;;;;;;;;;;143733;623;46029;-80
2022/01/10 05:14:01;;;;;;;32.08;26.80;;;;;;;;;;143734;618;47021;-79
2022/01/10 05:16:28;;;;;;;33.05;24.60;;;;;;;;;;143735;593;46010;-80
2022/01/10 05:18:55;;;;;;;29.60;23.17;;;;;;;;;;143732;590;46022;-79
2022/01/10 05:21:22;;;;;;;30.37;22.83;;;;;;;;;;143737;596;45044;-81
2022/01/10 05:23:49;;;;;;;26.73;22.35;;;;;;;;;;143732;670;46020;-80
2022/01/10 05:26:18;;;;;;;26.85;21.83;;;;;;;;;;143735;634;46020;-79
2022/01/10 05:28:45;;;;;;;34.85;21.85;;;;;;;;;;143733;792;46012;-79
2022/01/10 05:31:14;;;;;;;26.23;19.92;;;;;;;;;;143733;593;46020;-80
2022/01/10 05:33:40;;;;;;;27.35;17.85;;;;;;;;;;143734;583;46020;-80
2022/01/10 05:36:07;;;;;;;23.83;18.48;;;;;;;;;;143735;739;46011;-79
2022/01/10 05:38:34;;;;;;;24.83;19.15;;;;;;;;;;143733;595;46022;-80
2022/01/10 05:41:00;;;;;;;30.25;21.35;;;;;;;;;;143733;580;47013;-79
2022/01/10 05:43:27;;;;;;;28.60;20.98;;;;;;;;;;143735;585;46012;-80
2022/01/10 05:45:55;;;;;;;31.58;24.00;;;;;;;;;;143735;583;46010;-81
2022/01/10 05:48:26;;;;;;;27.50;21.48;;;;;;;;;;143732;605;47022;-79
2022/01/10 05:50:53;;;;;;;29.02;20.98;;;;;;;;;;143735;569;46021;-80
2022/01/10 05:53:20;;;;;;;27.27;20.58;;;;;;;;;;143734;614;46020;-80
2022/01/10 05:55:48;;;;;;;40.95;26.00;;;;;;;;;;143736;564;46010;-80
2022/01/10 05:58:15;;;;;;;31.15;23.40;;;;;;;;;;143733;602;46023;-80
2022/01/10 06:00:42;;;;;;;24.55;19.33;;;;;;;;;;143735;626;46010;-79
2022/01/10 06:03:09;;;;;;;24.02;18.50;;;;;;;;;;143736;618;46020;-80
2022/01/10 06:05:35;;;;;;;34.75;26.75;;;;;;;;;;143734;628;46011;-80
2022/01/10 06:08:05;;;;;;;45.95;33.25;;;;;;;;;;143732;650;47022;-78
2022/01/10 06:10:32;;;;;;;47.62;32.78;;;;;;;;;;143735;609;46020;-79
2022/01/10 06:13:00;;;;;;;30.95;23.33;;;;;;;;;;143732;792;46021;-81
2022/01/10 06:15:27;;;;;;;25.58;20.42;;;;;;;;;;143739;692;45020;-80
2022/01/10 06:17:53;;;;;;;69.80;48.83;;;;;;;;;;143734;629;46022;-80
2022/01/10 06:20:20;;;;;;;58.63;41.75;;;;;;;;;;143734;579;46011;-80
2022/01/10 06:22:47;;;;;;;43.90;33.00;;;;;;;;;;143735;705;46020;-79
2022/01/10 06:25:18;;;;;;;44.25;34.00;;;;;;;;;;143734;606;46012;-81
2022/01/10 06:27:44;;;;;;;47.72;33.72;;;;;;;;;;143734;569;47020;-79
2022/01/10 06:30:12;;;;;;;31.00;24.17;;;;;;;;;;143736;683;46010;-79
2022/01/10 06:32:39;;;;;;;46.90;33.75;;;;;;;;;;143735;588;46020;-78
2022/01/10 06:35:08;;;;;;;39.63;29.37;;;;;;;;;;143738;722;46019;-77
2022/01/10 06:37:37;;;;;;;39.03;27.27;;;;;;;;;;143733;637;46022;-79
2022/01/10 06:40:06;;;;;;;32.20;24.27;;;;;;;;;;143732;586;46012;-79
2022/01/10 06:42:33;;;;;;;32.80;21.95;;;;;;;;;;143734;566;46021;-79
2022/01/10 06:45:00;;;;;;;22.58;20.10;;;;;;;;;;143737;608;46012;-81
2022/01/10 06:47:26;;;;;;;27.10;21.65;;;;;;;;;;143734;585;46020;-79
2022/01/10 06:49:53;;;;;;;31.40;24.95;;;;;;;;;;143735;708;46021;-79
2022/01/10 06:52:20;;;;;;;33.63;26.27;;;;;;;;;;143737;610;46020;-79
2022/01/10 06:54:46;;;;;;;38.35;28.95;;;;;;;;;;143736;680;46012;-80
2022/01/10 06:57:13;;;;;;;39.63;29.15;;;;;;;;;;143734;574;46022;-79
2022/01/10 06:59:40;;;;;;;31.25;23.45;;;;;;;;;;143734;683;46010;-79
2022/01/10 07:02:06;;;;;;;31.75;23.00;;;;;;;;;;143736;609;47018;-79
2022/01/10 07:04:33;;;;;;;28.92;22.87;;;;;;;;;;143735;725;46018;-80
2022/01/10 07:06:59;;;;;;;37.03;27.00;;;;;;;;;;143734;577;46022;-80
2022/01/10 07:09:26;;;;;;;29.33;21.85;;;;;;;;;;143735;576;46012;-80
2022/01/10 07:11:53;;;;;;;34.35;23.40;;;;;;;;;;143736;611;46021;-79
2022/01/10 07:14:20;;;;;;;45.80;27.95;;;;;;;;;;143735;601;46010;-80
2022/01/10 07:16:49;;;;;;;37.70;26.62;;;;;;;;;;143734;672;46022;-79
2022/01/10 07:19:18;;;;;;;27.13;22.83;;;;;;;;;;143734;736;46914;-79
2022/01/10 07:21:47;;;;;;;38.40;27.15;;;;;;;;;;143735;569;46020;-80
2022/01/10 07:24:14;;;;;;;35.72;27.92;;;;;;;;;;143736;604;46010;-79
2022/01/10 07:26:40;;;;;;;30.27;23.05;;;;;;;;;;143733;685;47022;-78
2022/01/10 07:29:08;;;;;;;25.70;20.62;;;;;;;;;;143734;750;46010;-79
2022/01/10 07:31:38;;;;;;;28.25;22.15;;;;;;;;;;143735;609;46020;-79
2022/01/10 07:34:05;;;;;;;27.37;19.52;;;;;;;;;;143737;623;46011;-79
2022/01/10 07:36:33;;;;;;;26.20;19.20;;;;;;;;;;143730;569;47020;-81
2022/01/10 07:38:59;;;;;;;30.60;20.00;;;;;;;;;;143733;582;46012;-78
2022/01/10 07:41:26;;;;;;;27.08;18.60;;;;;;;;;;143734;570;46021;-79
2022/01/10 07:43:52;;;;;;;28.33;20.40;;;;;;;;;;143736;564;46010;-79
2022/01/10 07:46:20;;;;;;;29.48;24.27;;;;;;;;;;143737;760;46012;-79
2022/01/10 07:48:47;;;;;;;34.50;27.58;;;;;;;;;;143734;573;46011;-78
2022/01/10 07:51:13;;;;;;;36.80;22.45;;;;;;;;;;143735;613;46020;-79
2022/01/10 07:53:41;;;;;;;31.55;22.17;;;;;;;;;;143738;614;46018;-79
2022/01/10 07:56:08;;;;;;;24.20;17.25;;;;;;;;;;143734;593;46022;-79
2022/01/10 07:58:35;;;;;;;18.25;9.27;;;;;;;;;;143735;679;46020;-79
2022/01/10 08:01:02;;;;;;;6.97;4.75;;;;;;;;;;143735;592;46020;-80
2022/01/10 08:03:28;;;;;;;8.35;4.93;;;;;;;;;;143736;574;47020;-78
2022/01/10 08:05:55;;;;;;;9.40;4.57;;;;;;;;;;143733;575;47023;-79
2022/01/10 08:08:23;;;;;;;15.05;5.28;;;;;;;;;;143734;612;46010;-79
2022/01/10 08:10:49;;;;;;;7.57;3.62;;;;;;;;;;143736;638;46013;-79
2022/01/10 08:13:16;;;;;;;14.75;4.65;;;;;;;;;;143737;570;46021;-78
2022/01/10 08:15:43;;;;;;;8.93;4.82;;;;;;;;;;143733;607;46020;-78
2022/01/10 08:18:10;;;;;;;7.00;4.47;;;;;;;;;;143733;620;46011;-79
2022/01/10 08:20:37;;;;;;;15.05;5.32;;;;;;;;;;143735;580;46021;-78
2022/01/10 08:23:04;;;;;;;7.12;4.22;;;;;;;;;;143736;573;46018;-79
2022/01/10 08:25:30;;;;;;;8.68;3.90;;;;;;;;;;143733;597;47022;-78
2022/01/10 08:27:57;;;;;;;7.07;4.53;;;;;;;;;;143736;575;46012;-78
2022/01/10 08:30:24;;;;;;;6.20;3.95;;;;;;;;;;143735;579;46020;-78
2022/01/10 08:32:50;;;;;;;10.00;3.50;;;;;;;;;;143738;597;46044;-77
2022/01/10 08:35:18;;;;;;;3.42;2.95;;;;;;;;;;143735;689;46040;-79
2022/01/10 08:37:45;;;;;;;6.82;2.90;;;;;;;;;;143736;587;46010;-78
2022/01/10 08:40:13;;;;;;;5.65;2.78;;;;;;;;;;143735;565;46020;-77
2022/01/10 08:42:40;;;;;;;5.20;2.15;;;;;;;;;;143736;581;46012;-78
2022/01/10 08:45:09;;;;;;;5.65;2.62;;;;;;;;;;143731;598;47022;-79
2022/01/10 08:47:37;;;;;;;6.25;2.87;;;;;;;;;;143736;567;46020;-78
2022/01/10 08:50:05;;;;;;;6.50;2.62;;;;;;;;;;143736;572;46021;-78
2022/01/10 08:52:31;;;;;;;5.20;2.80;;;;;;;;;;143736;587;46010;-79
2022/01/10 08:54:58;;;;;;;8.57;3.03;;;;;;;;;;143735;688;46022;-78
2022/01/10 08:57:26;;;;;;;7.18;3.75;;;;;;;;;;143733;569;46021;-79
2022/01/10 08:59:53;;;;;;;6.93;3.28;;;;;;;;;;143735;614;46020;-79
2022/01/10 09:02:19;;;;;;;5.05;2.80;;;;;;;;;;143735;588;46012;-81
2022/01/10 09:04:46;;;;;;;7.28;3.22;;;;;;;;;;143734;612;47023;-78
2022/01/10 09:07:14;;;;;;;11.05;6.18;;;;;;;;;;143734;609;46010;-79
2022/01/10 09:09:42;;;;;;;7.03;3.42;;;;;;;;;;143737;613;47018;-79
2022/01/10 09:12:09;;;;;;;8.90;3.85;;;;;;;;;;143736;591;46010;-78
2022/01/10 09:14:35;;;;;;;9.52;3.70;;;;;;;;;;143733;585;46020;-78
2022/01/10 09:17:03;;;;;;;6.25;2.87;;;;;;;;;;143734;593;46010;-78
2022/01/10 09:19:30;;;;;;;5.40;3.25;;;;;;;;;;143734;606;46021;-79
2022/01/10 09:21:56;;;;;;;4.30;2.12;;;;;;;;;;143739;570;46018;-77
2022/01/10 09:24:23;;;;;;;7.25;2.72;;;;;;;;;;143735;570;46022;-78
2022/01/10 09:26:50;;;;;;;10.00;2.80;;;;;;;;;;143734;592;46021;-78
2022/01/10 09:29:16;;;;;;;5.00;2.15;;;;;;;;;;143734;577;46020;-78
2022/01/10 09:31:44;;;;;;;7.82;2.83;;;;;;;;;;143736;615;46011;-78
2022/01/10 09:34:11;;;;;;;5.80;2.50;;;;;;;;;;143735;593;46023;-77
2022/01/10 09:36:37;;;;;;;5.55;2.78;;;;;;;;;;143737;569;46020;-78
2022/01/10 09:39:04;;;;;;;5.90;2.67;;;;;;;;;;143735;623;47020;-78
2022/01/10 09:41:31;;;;;;;8.27;2.30;;;;;;;;;;143738;651;46021;-78
2022/01/10 09:44:02;;;;;;;6.72;2.30;;;;;;;;;;143733;565;47022;-77
2022/01/10 09:46:29;;;;;;;6.65;2.78;;;;;;;;;;143734;681;46010;-78
2022/01/10 09:48:59;;;;;;;4.30;2.22;;;;;;;;;;143735;634;46012;-78
2022/01/10 09:51:28;;;;;;;2.75;1.87;;;;;;;;;;143736;635;46010;-77
2022/01/10 09:53:56;;;;;;;4.45;2.20;;;;;;;;;;143735;571;46014;-78
2022/01/10 09:56:23;;;;;;;3.25;2.50;;;;;;;;;;143734;574;46011;-77
2022/01/10 09:58:50;;;;;;;5.50;2.97;;;;;;;;;;143735;598;46022;-77
2022/01/10 10:01:17;;;;;;;5.03;2.65;;;;;;;;;;143736;575;46018;-77
2022/01/10 10:03:45;;;;;;;7.03;3.05;;;;;;;;;;143733;586;47022;-77
2022/01/10 10:06:11;;;;;;;5.78;2.80;;;;;;;;;;143736;631;46020;-78
2022/01/10 10:08:39;;;;;;;4.25;3.15;;;;;;;;;;143737;578;46020;-77
2022/01/10 10:11:07;;;;;;;5.57;3.10;;;;;;;;;;143736;589;46021;-77
2022/01/10 10:13:52;;;;;;;5.90;3.97;;;;;;;;;;143734;605;47022;-78
2022/01/10 10:16:20;;;;;;;4.85;2.70;;;;;;;;;;143734;610;46010;-77
2022/01/10 10:18:47;;;;;;;6.18;2.92;;;;;;;;;;143736;570;46021;-78
2022/01/10 10:21:19;;;;;;;5.40;2.87;;;;;;;;;;143738;590;46010;-79
2022/01/10 10:23:48;;;;;;;4.82;2.72;;;;;;;;;;143737;605;46022;-78
2022/01/10 10:26:21;;;;;;;5.47;2.78;;;;;;;;;;143733;625;46010;-77
2022/01/10 10:28:51;;;;;;;5.03;2.95;;;;;;;;;;143736;599;46049;-78
2022/01/10 10:31:37;;;;;;;9.55;3.42;;;;;;;;;;143737;603;46019;-77
2022/01/10 10:34:07;;;;;;;6.93;3.85;;;;;;;;;;143735;590;46021;-78
2022/01/10 10:36:37;;;;;;;5.07;3.55;;;;;;;;;;143734;571;46010;-79
2022/01/10 10:39:07;;;;;;;7.72;3.47;;;;;;;;;;143736;615;46020;-81
2022/01/10 10:41:38;;;;;;;8.45;3.22;;;;;;;;;;143736;564;46018;-78
2022/01/10 10:44:06;;;;;;;5.75;2.62;;;;;;;;;;143734;605;46022;-78
2022/01/10 10:46:32;;;;;;;6.03;2.90;;;;;;;;;;143736;603;46020;-77
2022/01/10 10:49:03;;;;;;;5.65;2.92;;;;;;;;;;143738;634;46021;-79
2022/01/10 10:51:33;;;;;;;10.80;4.35;;;;;;;;;;143736;600;46018;-77
2022/01/10 10:54:12;;;;;;;11.45;4.18;;;;;;;;;;143734;614;46015;-78
2022/01/10 10:56:40;;;;;;;9.10;3.35;;;;;;;;;;143734;592;46010;-79
2022/01/10 10:59:08;;;;;;;9.65;4.85;;;;;;;;;;143737;573;46020;-77
2022/01/10 11:01:38;;;;;;;9.48;4.00;;;;;;;;;;143735;693;46019;-78
2022/01/10 11:04:09;;;;;;;6.90;4.00;;;;;;;;;;143735;629;46023;-78
2022/01/10 11:06:42;;;;;;;14.18;5.03;;;;;;;;;;143734;599;46012;-78
2022/01/10 11:09:14;;;;;;;13.05;4.20;;;;;;;;;;143736;633;45025;-82
2022/01/10 11:12:00;;;;;;;;;;;;;;;;;;143743;981;45021;-80
2022/01/10 11:14:29;;;;;;;6.45;3.65;;;;;;;;;;143746;610;46022;-80
2022/01/10 11:16:57;;;;;;;10.45;3.72;;;;;;;;;;143733;597;46012;-80
2022/01/10 11:19:30;;;;;;;7.87;3.58;;;;;;;;;;143734;587;46021;-80
2022/01/10 11:22:07;;;;;;;9.65;3.95;;;;;;;;;;143734;587;46018;-80
2022/01/10 11:24:50;;;;;;;10.88;5.00;;;;;;;;;;143732;585;46022;-80
2022/01/10 11:27:43;;;;;;;10.98;4.05;;;;;;;;;;143734;581;46012;-79
2022/01/10 11:30:29;;;;;;;10.00;4.10;;;;;;;;;;143735;600;46020;-80
2022/01/10 11:33:04;;;;;;;18.85;6.03;;;;;;;;;;143735;611;46012;-80
2022/01/10 11:35:52;;;;;;;33.40;11.25;;;;;;;;;;143732;608;46022;-80
2022/01/10 11:39:01;;;;;;;17.77;8.13;;;;;;;;;;143734;573;46020;-79
2022/01/10 11:41:32;;;;;;;12.68;4.55;;;;;;;;;;143735;618;46021;-77
2022/01/10 11:44:06;;;;;;;7.82;4.32;;;;;;;;;;143737;621;46020;-78
2022/01/10 11:46:43;;;;;;;7.50;3.60;;;;;;;;;;143730;581;47022;-78
2022/01/10 11:49:34;;;;;;;9.60;3.65;;;;;;;;;;143733;585;46914;-77
2022/01/10 11:52:13;;;;;;;9.48;3.62;;;;;;;;;;143733;578;46020;-79
2022/01/10 11:54:43;;;;;;;4.65;3.00;;;;;;;;;;143735;594;46021;-79
2022/01/10 11:57:13;;;;;;;7.65;4.87;;;;;;;;;;143732;569;46023;-79
2022/01/10 11:59:45;;;;;;;11.65;7.43;;;;;;;;;;143734;588;46020;-78
2022/01/10 12:02:20;;;;;;;9.55;4.12;;;;;;;;;;143734;595;46020;-78
2022/01/10 12:04:52;;;;;;;6.37;3.83;;;;;;;;;;143734;587;46020;-78
2022/01/10 12:07:24;;;;;;;11.27;4.40;;;;;;;;;;143734;611;46048;-78
2022/01/10 12:09:52;;;;;;;11.05;4.43;;;;;;;;;;143735;585;46021;-78
2022/01/10 12:12:21;;;;;;;8.77;3.75;;;;;;;;;;143732;575;46020;-79
2022/01/10 12:14:51;;;;;;;6.72;4.18;;;;;;;;;;143736;579;46012;-77
2022/01/10 12:17:18;;;;;;;9.40;4.70;;;;;;;;;;143733;569;46020;-79
2022/01/10 12:19:45;;;;;;;11.82;5.40;;;;;;;;;;143732;576;46020;-80
2022/01/10 12:22:11;;;;;;;12.40;4.65;;;;;;;;;;143735;593;46014;-78
2022/01/10 12:24:43;;;;;;;9.13;5.05;;;;;;;;;;143733;586;47020;-79
2022/01/10 12:27:12;;;;;;;7.18;5.40;;;;;;;;;;143731;585;47035;-79
2022/01/10 12:29:43;;;;;;;13.38;5.53;;;;;;;;;;143733;575;46012;-77
2022/01/10 12:32:14;;;;;;;8.88;5.65;;;;;;;;;;143733;576;47015;-77
2022/01/10 12:34:44;;;;;;;7.62;4.60;;;;;;;;;;143734;610;46012;-79
2022/01/10 12:37:10;;;;;;;11.00;5.28;;;;;;;;;;143732;724;46022;-78
2022/01/10 12:39:40;;;;;;;12.75;4.85;;;;;;;;;;143732;598;46012;-77
2022/01/10 12:42:08;;;;;;;9.77;5.12;;;;;;;;;;143735;625;46020;-78
2022/01/10 12:44:36;;;;;;;8.38;4.45;;;;;;;;;;143734;591;46020;-77
2022/01/10 12:47:07;;;;;;;9.55;4.05;;;;;;;;;;143731;569;47022;-78
2022/01/10 12:49:36;;;;;;;6.95;4.43;;;;;;;;;;143733;611;46012;-77
2022/01/10 12:52:04;;;;;;;9.27;3.45;;;;;;;;;;143732;597;46020;-78
2022/01/10 12:54:32;;;;;;;4.85;3.30;;;;;;;;;;143736;574;46013;-78
2022/01/10 12:57:00;;;;;;;6.72;2.87;;;;;;;;;;143734;597;46014;-78
2022/01/10 12:59:28;;;;;;;9.75;3.62;;;;;;;;;;143732;616;46012;-78
2022/01/10 13:01:58;;;;;;;5.62;3.20;;;;;;;;;;143731;570;47020;-79
2022/01/10 13:04:28;;;;;;;8.20;3.47;;;;;;;;;;143735;632;46012;-79
2022/01/10 13:06:56;;;;;;;4.70;3.10;;;;;;;;;;143734;627;46022;-78
2022/01/10 13:09:23;;;;;;;8.27;3.97;;;;;;;;;;143729;564;47021;-78
2022/01/10 13:12:01;;;;;;;13.07;5.28;;;;;;;;;;143734;624;46014;-80
2022/01/10 13:14:35;;;;;;;12.10;4.10;;;;;;;;;;143734;640;46012;-78
2022/01/10 13:17:08;;;;;;;10.30;4.12;;;;;;;;;;143732;572;46023;-78
2022/01/10 13:19:44;;;;;;;10.23;4.55;;;;;;;;;;143731;573;47012;-78
2022/01/10 13:22:16;;;;;;;6.12;3.95;;;;;;;;;;143734;625;46020;-79
2022/01/10 13:24:52;;;;;;;21.92;13.95;;;;;;;;;;143736;592;46012;-78
2022/01/10 13:27:25;;;;;;;9.60;7.68;;;;;;;;;;143732;569;47020;-79
2022/01/10 13:29:58;;;;;;;9.55;3.97;;;;;;;;;;143731;569;46914;-78
2022/01/10 13:32:30;;;;;;;12.63;6.55;;;;;;;;;;143734;565;46021;-77
2022/01/10 13:35:22;;;;;;;11.50;3.50;;;;;;;;;;143736;579;46012;-77
2022/01/10 13:38:12;;;;;;;7.28;3.55;;;;;;;;;;143731;587;47024;-77
2022/01/10 13:40:58;;;;;;;7.90;3.92;;;;;;;;;;143733;564;46012;-77
2022/01/10 13:43:33;;;;;;;8.38;3.53;;;;;;;;;;143732;577;46020;-77
2022/01/10 13:46:07;;;;;;;8.65;4.12;;;;;;;;;;143736;582;46012;-79
2022/01/10 13:48:48;;;;;;;7.60;4.05;;;;;;;;;;143733;614;46023;-78
2022/01/10 13:51:24;;;;;;;9.65;4.53;;;;;;;;;;143734;576;46012;-78
2022/01/10 13:53:52;;;;;;;7.20;4.32;;;;;;;;;;143734;609;46021;-78
2022/01/10 13:56:42;;;;;;;11.15;4.12;;;;;;;;;;143735;564;46012;-79
2022/01/10 13:59:16;;;;;;;9.25;5.87;;;;;;;;;;143733;573;46020;-79
2022/01/10 14:01:45;;;;;;;12.68;6.00;;;;;;;;;;143732;614;46013;-79
2022/01/10 14:04:30;;;;;;;10.43;3.50;;;;;;;;;;143734;588;46020;-79
2022/01/10 14:06:58;;;;;;;7.70;3.70;;;;;;;;;;143735;614;46018;-80
2022/01/10 14:09:29;;;;;;;8.63;4.78;;;;;;;;;;143731;569;46022;-79
2022/01/10 14:11:56;;;;;;;9.82;3.95;;;;;;;;;;143731;621;46012;-78
2022/01/10 14:14:29;;;;;;;10.85;5.05;;;;;;;;;;143734;576;46020;-80
2022/01/10 14:16:57;;;;;;;13.52;4.82;;;;;;;;;;143735;576;46018;-79
2022/01/10 14:19:23;;;;;;;12.32;4.97;;;;;;;;;;143731;574;47022;-78
2022/01/10 14:21:54;;;;;;;15.20;9.02;;;;;;;;;;143733;601;46012;-79
2022/01/10 14:24:24;;;;;;;13.73;7.65;;;;;;;;;;143735;570;46021;-79
2022/01/10 14:26:53;;;;;;;10.57;6.22;;;;;;;;;;143734;571;46018;-79
2022/01/10 14:29:20;;;;;;;11.60;6.78;;;;;;;;;;143733;679;46022;-79
2022/01/10 14:31:49;;;;;;;13.77;5.25;;;;;;;;;;143734;590;46020;-78
2022/01/10 14:34:17;;;;;;;15.43;5.32;;;;;;;;;;143732;613;46018;-79
2022/01/10 14:36:44;;;;;;;9.13;5.18;;;;;;;;;;143735;743;46043;-79
2022/01/10 14:39:11;;;;;;;10.13;5.07;;;;;;;;;;143733;589;46023;-78
2022/01/10 14:41:42;;;;;;;10.25;5.40;;;;;;;;;;143732;630;46020;-79
2022/01/10 14:44:09;;;;;;;18.10;6.07;;;;;;;;;;143734;622;46020;-79
2022/01/10 14:46:36;;;;;;;7.20;5.35;;;;;;;;;;143738;582;45033;-78